Řízení letového provozu České republiky  
Aktualizace dat:  19.02.2018 12:00:29 UTC English version
   METEO Zobrazení stránky:  19.02.2018 12:03:30 UTC  
vysvětlivky
METAR EDDB 191150Z 17004KT 100V270 CAVOK 04/M03 Q1021 NOSIG=
METAR EDDC 191150Z VRB02KT CAVOK 02/M06 Q1020 NOSIG=
METAR EDDE 191150Z 19003KT 110V230 9999 FEW023 BKN140 01/M04 Q1019 NOSIG=
METAR EDDF 191150Z 07003KT 030V110 9999 FEW022 SCT120 BKN230 02/M03 Q1020 R88/0///95 NOSIG=
METAR EDDM 191150Z 12004KT 070V190 9999 BKN010 M03/M05 Q1018 R88/190095 NOSIG=
METAR EDDN 191150Z VRB03KT 9999 SCT027 BKN280 01/M05 Q1019 NOSIG=
METAR EDDP 191150Z 20003KT 100V260 CAVOK 03/M03 Q1020 NOSIG=
METAR EDDT 191150Z 17005KT 130V250 CAVOK 04/M03 Q1021 NOSIG=
METAR EDQM 191150Z 11004KT 070V140 CAVOK M01/M07 Q1018=
METAR EPBY 191130Z 26005KT 9999 SCT031 BKN036 03/M04 Q1024 =
METAR EPGD 191130Z 24007KT 9999 BKN029 02/M05 Q1023 =
METAR EPKK 191130Z 09009KT CAVOK 02/M08 Q1023 =
METAR EPKT 191130Z 09010KT 060V130 CAVOK 02/M09 Q1022 =
METAR EPLL 191130Z 09005KT 040V130 9999 FEW030 BKN039 02/M07 Q1024 =
METAR EPPO 191130Z 18009KT 9999 BKN033 02/M06 Q1023 R10/19//95 =
METAR EPRZ 191130Z 11005KT CAVOK M01/M06 Q1025 =
METAR EPWA 191130Z 23004KT 190V250 9999 FEW033 BKN043 02/M06 Q1025 NOSIG=
METAR EPWR 191130Z 16012KT 120V190 CAVOK 03/M06 Q1023 =
METAR LHBP 191130Z 06009KT 030V090 CAVOK 03/M06 Q1023 NOSIG=
METAR LHSM 191115Z 05005KT CAVOK 02/M05 Q1023 NOSIG=
METAR LKCV 191100Z VRB02KT CAVOK 01/M06 Q1022 NOSIG=
METAR LKKB 191100Z 06007KT 360V110 CAVOK 00/M04 Q1021 NOSIG=
METAR LKKU 191100Z 01004KT CAVOK 00/M05 Q1023=
METAR LKKV 191200Z 12007KT CAVOK M00/M06 Q1017 RMK REG QNH 1014=
METAR LKLN 191100Z AUTO 08005KT 330V130 CAVOK 01/M05 Q1020=
METAR LKMT 191200Z VRB01KT 8000 NSC M01/M03 Q1022 R04/710195 NOSIG RMK REG QNH 1014=
METAR LKNA 191100Z 13008KT CAVOK M03/M06 Q1020 NOSIG=
METAR LKPD 191100Z 09005KT CAVOK 01/M05 Q1022 NOSIG=
METAR LKPR 191200Z 10006KT 050V140 CAVOK 01/M06 Q1019 NOSIG RMK REG QNH 1014=
METAR LKTB 191200Z 07006KT CAVOK 00/M04 Q1022 R27/31//95 NOSIG RMK REG QNH 1014=
METAR LKVO 191200Z 10007KT 050V140 CAVOK 02/M05 Q1021=
METAR LOWI 191150Z VRB01KT 9999 FEW030 04/M03 Q1015 NOSIG=
METAR LOWL 191150Z 10009KT 070V150 9999 FEW021 02/M04 Q1018 R08/19//95 NOSIG=
METAR LOWS 191150Z 36005KT 330V030 9999 FEW012 BKN017 M01/M05 Q1018 NOSIG=
METAR LOWW 191150Z 14011KT 9999 FEW025 SCT300 02/M03 Q1022 R88/12//95 NOSIG=
METAR LZIB 191130Z 10005KT 070V140 9999 SCT020 02/M03 Q1023 NOSIG=
METAR LZKZ 191130Z 05007KT CAVOK 03/M08 Q1023 NOSIG=
METAR LZPP 191130Z 33005KT 9999 FEW022 01/M04 Q1023=
METAR LZSL 191130Z 25002KT CAVOK 00/M07 Q1022=
METAR LZTT 191130Z 05003KT CAVOK M03/M09 Q1021 NOSIG=
METAR LZZI 191130Z 05002KT CAVOK 01/M06 Q1022=
METAR URRP NIL